createdAt,value
2019-04-28T00:00:36.368Z,10.89
2019-04-28T00:03:05.211Z,10.97
2019-04-28T00:05:33.832Z,10.87
2019-04-28T00:08:02.408Z,10.87
2019-04-28T00:10:32.054Z,10.73
2019-04-28T00:13:01.051Z,10.72
2019-04-28T00:15:30.800Z,10.83
2019-04-28T00:18:01.551Z,10.78
2019-04-28T00:20:34.481Z,10.68
2019-04-28T00:23:07.356Z,10.69
2019-04-28T00:25:37.558Z,10.72
2019-04-28T00:28:06.184Z,10.55
2019-04-28T00:30:34.821Z,10.60
2019-04-28T00:33:03.433Z,10.73
2019-04-28T00:35:35.089Z,10.87
2019-04-28T00:38:02.226Z,10.88
2019-04-28T00:40:31.708Z,10.91
2019-04-28T00:43:00.896Z,11.03
2019-04-28T00:45:31.327Z,11.01
2019-04-28T00:48:01.031Z,10.94
2019-04-28T00:50:31.511Z,10.71
2019-04-28T00:53:01.733Z,10.55
2019-04-28T00:55:31.988Z,10.64
2019-04-28T00:58:00.979Z,10.61
2019-04-28T01:00:31.412Z,10.58
2019-04-28T01:03:01.689Z,10.54
2019-04-28T01:05:31.177Z,10.59
2019-04-28T01:08:01.153Z,10.64
2019-04-28T01:10:31.305Z,10.64
2019-04-28T01:13:01.963Z,10.65
2019-04-28T01:15:31.868Z,10.75
2019-04-28T01:18:04.775Z,10.84
2019-04-28T01:20:33.353Z,10.86
2019-04-28T01:23:02.017Z,10.85
2019-04-28T01:25:31.723Z,10.81
2019-04-28T01:28:00.625Z,10.77
2019-04-28T01:30:30.887Z,10.66
2019-04-28T01:33:09.862Z,10.66
2019-04-28T01:35:39.700Z,10.64
2019-04-28T01:38:09.933Z,10.55
2019-04-28T01:40:38.577Z,10.57
2019-04-28T01:43:07.528Z,10.63
2019-04-28T01:45:36.182Z,10.58
2019-04-28T01:48:04.901Z,10.57
2019-04-28T01:50:33.511Z,10.73
2019-04-28T01:53:02.123Z,10.73
2019-04-28T01:55:30.802Z,10.71
2019-04-28T01:57:59.713Z,10.52
2019-04-28T02:00:29.648Z,10.40
2019-04-28T02:03:00.220Z,10.34
2019-04-28T02:05:29.532Z,10.34
2019-04-28T02:07:58.199Z,10.30
2019-04-28T02:10:26.838Z,10.25
2019-04-28T02:12:55.457Z,10.29
2019-04-28T02:15:24.027Z,10.36
2019-04-28T02:17:52.653Z,10.29
2019-04-28T02:20:22.717Z,10.25
2019-04-28T02:22:53.174Z,10.38
2019-04-28T02:25:21.898Z,10.45
2019-04-28T02:27:50.521Z,10.55
2019-04-28T02:30:22.645Z,10.57
2019-04-28T02:32:51.926Z,10.65
2019-04-28T02:35:21.324Z,10.51
2019-04-28T02:37:50.617Z,10.43
2019-04-28T02:40:20.651Z,10.44
2019-04-28T02:42:51.880Z,10.41
2019-04-28T02:45:21.760Z,10.39
2019-04-28T02:47:52.438Z,10.54
2019-04-28T02:50:41.197Z,10.56
2019-04-28T02:53:11.535Z,10.72
2019-04-28T02:55:41.236Z,10.85
2019-04-28T02:58:11.354Z,10.91
2019-04-28T03:00:43.068Z,10.72
2019-04-28T03:03:11.137Z,10.85
2019-04-28T03:05:41.249Z,10.77
2019-04-28T03:08:11.165Z,10.54
2019-04-28T03:10:40.974Z,10.41
2019-04-28T03:13:12.822Z,10.40
2019-04-28T03:15:41.471Z,10.34
2019-04-28T03:18:11.496Z,10.19
2019-04-28T03:20:41.844Z,10.12
2019-04-28T03:23:12.364Z,10.19
2019-04-28T03:25:57.459Z,10.12
2019-04-28T03:28:36.757Z,10.00
2019-04-28T03:31:36.882Z,10.05
2019-04-28T03:33:47.341Z,10.05
2019-04-28T03:36:15.411Z,10.09
2019-04-28T03:38:41.323Z,10.25
2019-04-28T03:41:11.178Z,10.26
2019-04-28T03:43:40.610Z,10.06
2019-04-28T03:46:14.043Z,10.00
2019-04-28T03:48:42.537Z,10.06
2019-04-28T03:51:13.422Z,10.06
2019-04-28T03:53:41.502Z,9.98
2019-04-28T03:56:11.397Z,9.96
2019-04-28T03:58:40.750Z,10.17
2019-04-28T04:01:10.717Z,10.15
2019-04-28T04:03:41.737Z,10.19
2019-04-28T04:06:10.594Z,10.37
2019-04-28T04:08:40.830Z,10.54
2019-04-28T04:11:14.333Z,10.56
2019-04-28T04:13:47.267Z,10.45
2019-04-28T04:16:20.835Z,10.47
2019-04-28T04:18:53.645Z,10.40
2019-04-28T04:21:21.681Z,10.34
2019-04-28T04:23:51.018Z,10.38
2019-04-28T04:26:21.211Z,10.39
2019-04-28T04:28:51.518Z,10.32
2019-04-28T04:31:20.382Z,10.26
2019-04-28T04:33:50.538Z,10.29
2019-04-28T04:36:21.140Z,10.24
2019-04-28T04:38:51.384Z,10.25
2019-04-28T04:41:20.264Z,10.40
2019-04-28T04:43:51.368Z,10.62
2019-04-28T04:46:22.050Z,10.72
2019-04-28T04:48:51.338Z,10.64
2019-04-28T04:51:21.327Z,10.69
2019-04-28T04:53:51.362Z,10.56
2019-04-28T04:56:21.390Z,10.56
2019-04-28T04:58:50.702Z,10.56
2019-04-28T05:01:30.440Z,10.55
2019-04-28T05:04:09.945Z,10.56
2019-04-28T05:06:41.531Z,10.61
2019-04-28T05:09:10.674Z,10.75
2019-04-28T05:11:40.231Z,10.77
2019-04-28T05:14:11.581Z,10.87
2019-04-28T05:16:40.005Z,10.86
2019-04-28T05:19:10.007Z,10.77
2019-04-28T05:21:40.190Z,10.86
2019-04-28T05:24:15.934Z,11.04
2019-04-28T05:26:47.485Z,11.25
2019-04-28T05:29:21.801Z,11.25
2019-04-28T05:31:46.138Z,11.16
2019-04-28T05:34:14.683Z,10.97
2019-04-28T05:36:44.650Z,10.81
2019-04-28T05:39:13.395Z,10.88
2019-04-28T05:41:42.020Z,10.94
2019-04-28T05:44:10.638Z,11.06
2019-04-28T05:46:40.285Z,11.21
2019-04-28T05:49:26.790Z,11.24
2019-04-28T05:52:13.146Z,11.34
2019-04-28T05:54:46.040Z,11.35
2019-04-28T05:57:16.266Z,11.35
2019-04-28T05:59:46.336Z,11.51
2019-04-28T06:02:32.690Z,11.49
2019-04-28T06:05:01.312Z,11.43
2019-04-28T06:07:37.190Z,11.13
2019-04-28T06:10:10.206Z,11.02
2019-04-28T06:12:40.571Z,10.95
2019-04-28T06:15:11.698Z,10.96
2019-04-28T06:17:39.798Z,10.98
2019-04-28T06:20:11.583Z,11.07
2019-04-28T06:22:39.270Z,11.06
2019-04-28T06:25:10.093Z,11.13
2019-04-28T06:27:38.666Z,11.32
2019-04-28T06:30:08.273Z,11.61
2019-04-28T06:32:36.848Z,11.67
2019-04-28T06:35:08.421Z,11.68
2019-04-28T06:37:36.947Z,11.70
2019-04-28T06:40:06.856Z,11.74
2019-04-28T06:42:35.630Z,11.96
2019-04-28T06:45:05.747Z,12.03
2019-04-28T06:47:34.350Z,12.01
2019-04-28T06:50:02.977Z,12.09
2019-04-28T06:52:31.565Z,12.54
2019-04-28T06:55:00.005Z,12.55
2019-04-28T06:57:28.628Z,12.62
2019-04-28T06:59:57.075Z,12.50
2019-04-28T07:02:25.681Z,12.38
2019-04-28T07:05:01.752Z,12.10
2019-04-28T07:07:24.485Z,11.93
2019-04-28T07:09:53.017Z,12.06
2019-04-28T07:12:21.590Z,12.26
2019-04-28T07:14:50.110Z,12.14
2019-04-28T07:17:18.725Z,12.16
2019-04-28T07:19:48.974Z,12.47
2019-04-28T07:22:21.956Z,12.44
2019-04-28T07:24:50.533Z,12.12
2019-04-28T07:27:19.079Z,12.11
2019-04-28T07:29:47.632Z,12.05
2019-04-28T07:32:16.250Z,12.15
2019-04-28T07:34:44.777Z,11.98
2019-04-28T07:37:13.422Z,11.84
2019-04-28T07:39:41.929Z,11.68
2019-04-28T07:42:10.595Z,11.68
2019-04-28T07:44:39.219Z,11.65
2019-04-28T07:47:08.664Z,11.73
2019-04-28T07:49:37.296Z,11.64
2019-04-28T07:52:10.522Z,11.80
2019-04-28T07:54:40.159Z,11.93
2019-04-28T07:57:09.018Z,12.09
2019-04-28T07:59:37.636Z,12.19
2019-04-28T08:02:06.489Z,12.00
2019-04-28T08:04:35.073Z,12.11
2019-04-28T08:07:03.705Z,12.14
2019-04-28T08:09:32.287Z,12.00
2019-04-28T08:12:00.806Z,12.16
2019-04-28T08:14:29.436Z,12.46
2019-04-28T08:16:58.041Z,12.86
2019-04-28T08:19:26.695Z,12.97
2019-04-28T08:21:55.299Z,12.93
2019-04-28T08:24:24.200Z,12.83
2019-04-28T08:26:52.795Z,12.64
2019-04-28T08:29:21.335Z,12.51
2019-04-28T08:31:54.586Z,12.28
2019-04-28T08:34:23.540Z,12.53
2019-04-28T08:36:52.155Z,12.59
2019-04-28T08:39:23.429Z,12.61
2019-04-28T08:41:51.023Z,12.70
2019-04-28T08:44:19.622Z,12.66
2019-04-28T08:46:48.226Z,12.59
2019-04-28T08:49:16.785Z,12.53
2019-04-28T08:51:45.423Z,12.54
2019-04-28T08:54:13.993Z,13.13
2019-04-28T08:56:42.516Z,13.91
2019-04-28T08:59:11.130Z,14.52
2019-04-28T09:01:39.827Z,15.03
2019-04-28T09:04:15.417Z,15.32
2019-04-28T09:06:39.580Z,15.42
2019-04-28T09:09:12.189Z,15.05
2019-04-28T09:11:40.814Z,14.64
2019-04-28T09:14:10.922Z,14.22
2019-04-28T09:16:39.566Z,13.84
2019-04-28T09:19:09.169Z,13.71
2019-04-28T09:21:37.702Z,13.28
2019-04-28T09:24:07.744Z,13.11
2019-04-28T09:26:42.651Z,13.22
2019-04-28T09:29:11.171Z,13.28
2019-04-28T09:31:39.833Z,13.51
2019-04-28T09:34:09.289Z,14.00
2019-04-28T09:36:37.905Z,14.76
2019-04-28T09:39:08.268Z,14.98
2019-04-28T09:41:38.544Z,14.95
2019-04-28T09:44:17.295Z,14.71
2019-04-28T09:46:47.483Z,14.50
2019-04-28T09:49:15.986Z,14.16
2019-04-28T09:51:44.590Z,13.82
2019-04-28T09:54:13.096Z,14.19
2019-04-28T09:56:41.631Z,14.57
2019-04-28T09:59:13.151Z,15.26
2019-04-28T10:01:41.697Z,15.29
2019-04-28T10:04:10.292Z,15.44
2019-04-28T10:06:39.330Z,15.29
2019-04-28T10:09:08.527Z,15.62
2019-04-28T10:11:37.150Z,16.12
2019-04-28T10:14:05.840Z,16.35
2019-04-28T10:16:34.450Z,16.45
2019-04-28T10:19:03.023Z,16.43
2019-04-28T10:21:31.655Z,16.47
2019-04-28T10:24:00.169Z,16.68
2019-04-28T10:26:28.834Z,16.63
2019-04-28T10:28:57.399Z,16.86
2019-04-28T10:31:25.973Z,16.73
2019-04-28T10:33:56.245Z,16.78
2019-04-28T10:36:25.142Z,16.61
2019-04-28T10:38:55.251Z,16.45
2019-04-28T10:41:25.321Z,17.15
2019-04-28T10:43:54.026Z,17.62
2019-04-28T10:46:22.618Z,17.65
2019-04-28T10:48:51.288Z,17.57
2019-04-28T10:51:19.921Z,17.69
2019-04-28T10:53:48.450Z,17.52
2019-04-28T10:56:17.050Z,17.79
2019-04-28T10:58:47.236Z,17.61
2019-04-28T11:01:15.811Z,17.11
2019-04-28T11:03:46.105Z,16.62
2019-04-28T11:06:14.759Z,15.93
2019-04-28T11:09:01.274Z,15.76
2019-04-28T11:11:29.931Z,15.65
2019-04-28T11:13:59.476Z,15.83
2019-04-28T11:16:29.391Z,15.67
2019-04-28T11:18:58.044Z,15.51
2019-04-28T11:21:26.619Z,15.39
2019-04-28T11:23:55.212Z,15.34
2019-04-28T11:26:23.880Z,15.17
2019-04-28T11:28:52.745Z,14.96
2019-04-28T11:31:21.530Z,14.74
2019-04-28T11:34:00.728Z,14.63
2019-04-28T11:36:29.537Z,14.53
2019-04-28T11:38:58.108Z,14.75
2019-04-28T11:41:26.700Z,14.97
2019-04-28T11:43:55.318Z,14.90
2019-04-28T11:46:24.239Z,14.80
2019-04-28T11:48:52.824Z,15.02
2019-04-28T11:51:21.444Z,15.12
2019-04-28T11:53:50.077Z,15.08
2019-04-28T11:56:18.667Z,14.88
2019-04-28T11:58:47.247Z,14.96
2019-04-28T12:01:17.345Z,15.05
2019-04-28T12:03:45.994Z,15.17
2019-04-28T12:06:14.756Z,15.28
2019-04-28T12:08:43.461Z,15.05
2019-04-28T12:11:19.533Z,15.17
2019-04-28T12:13:49.803Z,15.54
2019-04-28T12:16:22.677Z,15.60
2019-04-28T12:18:58.350Z,15.29
2019-04-28T12:21:27.061Z,15.45
2019-04-28T12:23:55.534Z,15.64
2019-04-28T12:26:24.068Z,15.96
2019-04-28T12:28:52.671Z,16.31
2019-04-28T12:31:21.410Z,15.91
2019-04-28T12:33:50.062Z,15.85
2019-04-28T12:36:18.681Z,15.76
2019-04-28T12:38:47.224Z,15.63
2019-04-28T12:41:15.858Z,15.78
2019-04-28T12:43:44.432Z,16.04
2019-04-28T12:46:13.048Z,16.09
2019-04-28T12:48:41.706Z,16.02
2019-04-28T12:51:10.634Z,15.96
2019-04-28T12:53:39.789Z,15.84
2019-04-28T12:56:08.582Z,15.93
2019-04-28T12:58:37.189Z,15.85
2019-04-28T13:01:07.445Z,16.15
2019-04-28T13:03:40.648Z,16.44
2019-04-28T13:06:14.405Z,16.28
2019-04-28T13:08:42.911Z,16.05
2019-04-28T13:11:11.543Z,15.96
2019-04-28T13:13:40.063Z,15.96
2019-04-28T13:16:08.745Z,15.99
2019-04-28T13:18:37.338Z,15.66
2019-04-28T13:21:05.956Z,15.36
2019-04-28T13:23:34.581Z,14.99
2019-04-28T13:26:03.370Z,14.85
2019-04-28T13:28:32.000Z,14.74
2019-04-28T13:31:00.505Z,14.52
2019-04-28T13:33:29.131Z,14.19
2019-04-28T13:35:57.784Z,14.14
2019-04-28T13:38:26.487Z,14.31
2019-04-28T13:40:55.091Z,14.64
2019-04-28T13:43:23.568Z,14.84
2019-04-28T13:45:52.191Z,14.95
2019-04-28T13:48:20.775Z,15.03
2019-04-28T13:50:49.408Z,14.97
2019-04-28T13:53:18.155Z,14.95
2019-04-28T13:55:48.383Z,15.08
2019-04-28T13:58:18.707Z,14.95
2019-04-28T14:00:55.094Z,15.03
2019-04-28T14:03:42.038Z,15.01
2019-04-28T14:06:27.999Z,15.14
2019-04-28T14:08:48.774Z,15.56
2019-04-28T14:11:17.531Z,15.83
2019-04-28T14:13:46.017Z,15.87
2019-04-28T14:16:14.618Z,16.32
2019-04-28T14:18:43.246Z,16.77
2019-04-28T14:21:11.857Z,16.97
2019-04-28T14:23:40.493Z,16.78
2019-04-28T14:26:09.091Z,16.46
2019-04-28T14:28:37.717Z,16.11
2019-04-28T14:31:06.400Z,16.00
2019-04-28T14:33:35.018Z,15.75
2019-04-28T14:36:03.612Z,15.80
2019-04-28T14:38:32.046Z,15.94
2019-04-28T14:41:00.771Z,16.00
2019-04-28T14:43:29.325Z,15.57
2019-04-28T14:45:57.950Z,15.40
2019-04-28T14:48:26.630Z,15.31
2019-04-28T14:50:55.271Z,14.98
2019-04-28T14:53:23.940Z,14.76
2019-04-28T14:55:52.527Z,14.47
2019-04-28T14:58:21.205Z,14.23
2019-04-28T15:00:54.232Z,14.20
2019-04-28T15:03:24.574Z,14.12
2019-04-28T15:05:57.951Z,14.04
2019-04-28T15:08:37.553Z,14.04
2019-04-28T15:11:13.688Z,14.14
2019-04-28T15:13:42.336Z,14.27
2019-04-28T15:16:10.915Z,14.28
2019-04-28T15:18:40.302Z,14.27
2019-04-28T15:21:09.044Z,14.03
2019-04-28T15:23:37.652Z,13.96
2019-04-28T15:26:06.278Z,13.98
2019-04-28T15:28:34.978Z,13.97
2019-04-28T15:31:03.558Z,13.93
2019-04-28T15:33:32.193Z,13.76
2019-04-28T15:36:00.837Z,13.68
2019-04-28T15:38:29.476Z,13.62
2019-04-28T15:40:58.023Z,13.77
2019-04-28T15:43:26.903Z,14.00
2019-04-28T15:45:55.443Z,14.17
2019-04-28T15:48:23.992Z,14.30
2019-04-28T15:50:52.503Z,14.70
2019-04-28T15:53:21.055Z,14.97
2019-04-28T15:55:51.309Z,15.10
2019-04-28T15:58:36.253Z,14.98
2019-04-28T16:01:05.301Z,14.93
2019-04-28T16:03:33.891Z,14.78
2019-04-28T16:06:02.522Z,14.54
2019-04-28T16:08:31.136Z,14.30
2019-04-28T16:10:59.754Z,14.51
2019-04-28T16:13:28.392Z,15.02
2019-04-28T16:15:57.000Z,15.02
2019-04-28T16:18:25.620Z,14.92
2019-04-28T16:20:54.236Z,14.79
2019-04-28T16:23:22.925Z,15.00
2019-04-28T16:25:51.472Z,15.34
2019-04-28T16:28:20.017Z,15.23
2019-04-28T16:30:48.686Z,14.88
2019-04-28T16:33:17.331Z,14.59
2019-04-28T16:35:45.930Z,14.61
2019-04-28T16:38:14.822Z,14.65
2019-04-28T16:40:44.207Z,14.69
2019-04-28T16:43:12.812Z,14.64
2019-04-28T16:45:41.376Z,14.31
2019-04-28T16:48:10.612Z,14.19
2019-04-28T16:50:39.275Z,14.19
2019-04-28T16:53:07.890Z,14.36
2019-04-28T16:55:41.037Z,14.47
2019-04-28T16:58:12.192Z,14.40
2019-04-28T17:00:57.809Z,14.43
2019-04-28T17:03:27.980Z,14.51
2019-04-28T17:05:56.613Z,14.59
2019-04-28T17:08:25.222Z,14.57
2019-04-28T17:10:53.796Z,14.55
2019-04-28T17:13:23.004Z,14.23
2019-04-28T17:15:51.632Z,13.95
2019-04-28T17:18:20.194Z,13.92
2019-04-28T17:20:48.767Z,13.66
2019-04-28T17:23:17.316Z,13.55
2019-04-28T17:25:45.895Z,13.70
2019-04-28T17:28:14.459Z,13.69
2019-04-28T17:30:43.013Z,13.54
2019-04-28T17:33:12.303Z,13.54
2019-04-28T17:35:41.042Z,13.48
2019-04-28T17:38:09.586Z,13.48
2019-04-28T17:40:38.434Z,13.51
2019-04-28T17:43:08.217Z,13.54
2019-04-28T17:45:37.062Z,13.58
2019-04-28T17:48:07.226Z,13.67
2019-04-28T17:50:36.775Z,13.74
2019-04-28T17:53:05.386Z,13.81
2019-04-28T17:55:33.965Z,13.75
2019-04-28T17:58:02.616Z,13.74
2019-04-28T18:00:48.244Z,13.32
2019-04-28T18:03:24.389Z,12.95
2019-04-28T18:06:17.828Z,12.45
2019-04-28T18:08:43.390Z,12.14
2019-04-28T18:11:12.083Z,11.94
2019-04-28T18:13:41.006Z,11.87
2019-04-28T18:16:27.630Z,12.14
2019-04-28T18:19:06.864Z,12.21
2019-04-28T18:21:35.632Z,12.19
2019-04-28T18:24:04.289Z,12.22
2019-04-28T18:26:32.910Z,12.04
2019-04-28T18:29:01.419Z,11.71
2019-04-28T18:31:43.946Z,11.53
2019-04-28T18:34:30.603Z,11.36
2019-04-28T18:37:00.824Z,11.14
2019-04-28T18:39:47.507Z,10.99
2019-04-28T18:42:23.917Z,10.81
2019-04-28T18:44:52.609Z,10.83
2019-04-28T18:47:21.237Z,11.19
2019-04-28T18:49:49.947Z,11.36
2019-04-28T18:52:18.563Z,11.36
2019-04-28T18:54:47.177Z,11.30
2019-04-28T18:57:15.723Z,11.37
2019-04-28T18:59:44.241Z,11.23
2019-04-28T19:02:17.259Z,10.84
2019-04-28T19:04:45.859Z,10.58
2019-04-28T19:07:16.118Z,10.39
2019-04-28T19:09:46.355Z,10.17
2019-04-28T19:12:16.614Z,10.25
2019-04-28T19:14:55.816Z,10.27
2019-04-28T19:17:26.105Z,10.27
2019-04-28T19:19:54.512Z,10.63
2019-04-28T19:22:23.130Z,10.90
2019-04-28T19:24:51.721Z,11.05
2019-04-28T19:27:20.427Z,11.19
2019-04-28T19:29:49.067Z,10.96
2019-04-28T19:32:17.660Z,10.79
2019-04-28T19:34:46.293Z,10.69
2019-04-28T19:37:14.877Z,10.39
2019-04-28T19:39:43.420Z,10.40
2019-04-28T19:42:12.013Z,10.17
2019-04-28T19:44:41.143Z,10.17
2019-04-28T19:47:09.813Z,10.12
2019-04-28T19:49:38.427Z,9.99
2019-04-28T19:52:07.045Z,10.13
2019-04-28T19:54:37.250Z,10.35
2019-04-28T19:57:07.472Z,10.42
2019-04-28T19:59:53.934Z,10.49
2019-04-28T20:02:23.296Z,10.57
2019-04-28T20:04:51.842Z,10.45
2019-04-28T20:07:20.522Z,10.26
2019-04-28T20:09:49.186Z,10.23
2019-04-28T20:12:17.756Z,10.12
2019-04-28T20:14:46.382Z,10.13
2019-04-28T20:17:14.931Z,10.23
2019-04-28T20:19:43.405Z,10.07
2019-04-28T20:22:11.960Z,9.65
2019-04-28T20:24:47.200Z,9.60
2019-04-28T20:27:11.781Z,9.80
2019-04-28T20:29:41.321Z,10.04
2019-04-28T20:32:09.932Z,10.08
2019-04-28T20:34:38.731Z,10.13
2019-04-28T20:37:11.732Z,10.25
2019-04-28T20:39:41.431Z,10.20
2019-04-28T20:42:28.094Z,10.00
2019-04-28T20:44:56.735Z,9.95
2019-04-28T20:47:25.377Z,9.90
2019-04-28T20:49:53.987Z,9.84
2019-04-28T20:52:22.556Z,9.64
2019-04-28T20:54:51.004Z,9.55
2019-04-28T20:57:19.509Z,9.50
2019-04-28T20:59:48.021Z,9.26
2019-04-28T21:02:16.633Z,9.36
2019-04-28T21:04:45.251Z,9.71
2019-04-28T21:07:13.842Z,9.96
2019-04-28T21:09:42.515Z,10.19
2019-04-28T21:12:11.458Z,10.36
2019-04-28T21:14:40.096Z,10.45
2019-04-28T21:17:08.730Z,10.11
2019-04-28T21:19:37.241Z,9.95
2019-04-28T21:22:05.863Z,9.67
2019-04-28T21:24:34.438Z,9.45
2019-04-28T21:27:03.060Z,9.34
2019-04-28T21:29:31.602Z,9.04
2019-04-28T21:32:00.179Z,8.74
2019-04-28T21:34:28.864Z,8.75
2019-04-28T21:36:57.493Z,9.06
2019-04-28T21:39:26.028Z,9.06
2019-04-28T21:41:55.415Z,9.43
2019-04-28T21:44:25.677Z,9.69
2019-04-28T21:47:07.652Z,9.91
2019-04-28T21:49:37.814Z,9.78
2019-04-28T21:52:06.445Z,9.53
2019-04-28T21:54:35.004Z,9.37
2019-04-28T21:57:03.575Z,9.53
2019-04-28T21:59:32.156Z,9.41
2019-04-28T22:02:00.854Z,8.92
2019-04-28T22:04:29.446Z,8.45
2019-04-28T22:06:58.080Z,8.33
2019-04-28T22:09:26.684Z,8.39
2019-04-28T22:11:55.225Z,8.80
2019-04-28T22:14:23.660Z,9.07
2019-04-28T22:16:52.249Z,9.32
2019-04-28T22:19:21.060Z,9.52
2019-04-28T22:21:49.586Z,9.59
2019-04-28T22:24:19.874Z,9.63
2019-04-28T22:26:52.776Z,9.51
2019-04-28T22:29:21.322Z,9.26
2019-04-28T22:31:50.039Z,9.14
2019-04-28T22:34:18.618Z,8.88
2019-04-28T22:36:47.515Z,8.67
2019-04-28T22:39:16.601Z,8.73
2019-04-28T22:41:45.198Z,8.81
2019-04-28T22:44:13.749Z,8.84
2019-04-28T22:46:42.390Z,8.80
2019-04-28T22:49:11.769Z,8.85
2019-04-28T22:51:40.379Z,8.95
2019-04-28T22:54:13.410Z,9.05
2019-04-28T22:56:46.099Z,9.15
2019-04-28T22:59:25.710Z,9.08
2019-04-28T23:02:04.971Z,9.12
2019-04-28T23:04:41.271Z,8.91
2019-04-28T23:07:09.870Z,8.82
2019-04-28T23:09:38.422Z,8.50
2019-04-28T23:12:08.900Z,8.47
2019-04-28T23:14:37.421Z,8.10
2019-04-28T23:17:07.763Z,7.84
2019-04-28T23:19:38.030Z,7.88
2019-04-28T23:22:08.523Z,8.21
2019-04-28T23:24:37.141Z,8.41
2019-04-28T23:27:05.733Z,8.61
2019-04-28T23:29:34.244Z,8.84
2019-04-28T23:32:02.935Z,8.90
2019-04-28T23:34:31.546Z,8.91
2019-04-28T23:37:00.135Z,8.91
2019-04-28T23:39:28.772Z,8.70
2019-04-28T23:42:10.982Z,8.58
2019-04-28T23:44:39.579Z,8.45
2019-04-28T23:47:08.142Z,8.04
2019-04-28T23:49:36.675Z,7.86
2019-04-28T23:52:06.931Z,7.86
2019-04-28T23:54:37.079Z,7.78
2019-04-28T23:57:07.467Z,7.86
2019-04-28T23:59:36.175Z,8.15
